UKV5035 RJOC-RJOS
Flight info
| Callsign | UKV5035 |
|---|---|
| Flight time | 0h 39m |
| Altitude | 29000 |
| Route | TSUNO TOSAR DATIS AIZEN OS150 BIZAN |
| Aircraft | A321/M-SDE3FGHIRWY/LB1 |
Departure
| Time | 2026-05-07 13:44 |
|---|---|
| Airport | Izumo Enmusubi Airport (RJOC) |
Arrival
| Time | 2026-05-07 14:23 |
|---|---|
| Airport | Tokushima Awaodori Airport / JMSDF Tokushima Air Base (RJOS) |
| Time | Latitude | Longitude | Altitude | Speed | Heading |
|---|---|---|---|---|---|
| 2026-05-07 13:11 | 35.41471 | 132.88724 | 9 ft | 0 kts | 329° |
| 2026-05-07 13:32 | 35.41453 | 132.88736 | 11 ft | 4 kts | 334° |
| 2026-05-07 13:33 | 35.41428 | 132.88748 | 11 ft | 4 kts | 348° |
| 2026-05-07 13:33 | 35.41417 | 132.88750 | 10 ft | 0 kts | 359° |
| 2026-05-07 13:34 | 35.41418 | 132.88751 | 10 ft | 0 kts | 10° |
| 2026-05-07 13:35 | 35.41418 | 132.88759 | 11 ft | 1 kts | 76° |
| 2026-05-07 13:35 | 35.41411 | 132.88794 | 9 ft | 7 kts | 100° |
| 2026-05-07 13:35 | 35.41398 | 132.88832 | 9 ft | 0 kts | 130° |
| 2026-05-07 13:37 | 35.41397 | 132.88833 | 9 ft | 2 kts | 130° |
| 2026-05-07 13:39 | 35.41396 | 132.88834 | 9 ft | 0 kts | 131° |
| 2026-05-07 13:40 | 35.41395 | 132.88836 | 9 ft | 2 kts | 134° |
| 2026-05-07 13:40 | 35.41349 | 132.88883 | 11 ft | 13 kts | 129° |
| 2026-05-07 13:40 | 35.41389 | 132.89036 | 10 ft | 22 kts | 60° |
| 2026-05-07 13:40 | 35.41469 | 132.89207 | 9 ft | 24 kts | 60° |
| 2026-05-07 13:41 | 35.41556 | 132.89386 | 10 ft | 25 kts | 58° |
| 2026-05-07 13:41 | 35.41616 | 132.89505 | 11 ft | 13 kts | 59° |
| 2026-05-07 13:41 | 35.41661 | 132.89597 | 14 ft | 12 kts | 60° |
| 2026-05-07 13:41 | 35.41702 | 132.89683 | 19 ft | 11 kts | 59° |
| 2026-05-07 13:42 | 35.41739 | 132.89762 | 19 ft | 10 kts | 59° |
| 2026-05-07 13:42 | 35.41748 | 132.89781 | 22 ft | 0 kts | 59° |
| 2026-05-07 13:42 | 35.41749 | 132.89781 | 22 ft | 1 kts | 59° |
| 2026-05-07 13:42 | 35.41778 | 132.89828 | 21 ft | 11 kts | 42° |
| 2026-05-07 13:43 | 35.41833 | 132.89877 | 24 ft | 9 kts | 43° |
| 2026-05-07 13:43 | 35.41818 | 132.89907 | 24 ft | 7 kts | 195° |
| 2026-05-07 13:43 | 35.41707 | 132.89694 | 19 ft | 71 kts | 239° |
| 2026-05-07 13:43 | 35.41306 | 132.88867 | 28 ft | 151 kts | 238° |
| 2026-05-07 13:44 | 35.40747 | 132.87703 | 832 ft | 158 kts | 238° |
| 2026-05-07 13:44 | 35.40192 | 132.86552 | 1938 ft | 156 kts | 240° |
| 2026-05-07 13:44 | 35.39983 | 132.85272 | 2554 ft | 164 kts | 273° |
| 2026-05-07 13:44 | 35.40596 | 132.83934 | 2792 ft | 205 kts | 312° |
| 2026-05-07 13:45 | 35.42059 | 132.83294 | 3001 ft | 249 kts | 356° |
| 2026-05-07 13:45 | 35.43806 | 132.83971 | 3341 ft | 283 kts | 35° |
| 2026-05-07 13:45 | 35.45048 | 132.85882 | 3935 ft | 294 kts | 70° |
| 2026-05-07 13:45 | 35.45541 | 132.88296 | 4696 ft | 297 kts | 85° |
| 2026-05-07 13:46 | 35.45760 | 132.90832 | 5532 ft | 299 kts | 88° |
| 2026-05-07 13:46 | 35.45840 | 132.93395 | 6341 ft | 300 kts | 99° |
| 2026-05-07 13:46 | 35.45599 | 132.95914 | 7110 ft | 302 kts | 100° |
| 2026-05-07 13:46 | 35.45346 | 132.98484 | 7901 ft | 306 kts | 100° |
| 2026-05-07 13:47 | 35.45087 | 133.01094 | 8662 ft | 310 kts | 100° |
| 2026-05-07 13:47 | 35.44827 | 133.03733 | 9443 ft | 313 kts | 99° |
| 2026-05-07 13:47 | 35.44564 | 133.06403 | 10189 ft | 317 kts | 99° |
| 2026-05-07 13:47 | 35.44286 | 133.09188 | 10460 ft | 340 kts | 99° |
| 2026-05-07 13:48 | 35.43989 | 133.12125 | 10639 ft | 363 kts | 99° |
| 2026-05-07 13:48 | 35.43757 | 133.14435 | 10884 ft | 375 kts | 99° |
| 2026-05-07 13:48 | 35.43437 | 133.17658 | 11388 ft | 384 kts | 99° |
| 2026-05-07 13:48 | 35.43109 | 133.20939 | 12016 ft | 390 kts | 99° |
| 2026-05-07 13:49 | 35.42775 | 133.24264 | 12644 ft | 395 kts | 99° |
| 2026-05-07 13:49 | 35.42438 | 133.27631 | 13275 ft | 401 kts | 99° |
| 2026-05-07 13:49 | 35.42097 | 133.31039 | 13901 ft | 406 kts | 99° |
| 2026-05-07 13:49 | 35.41753 | 133.34492 | 14463 ft | 410 kts | 99° |
| 2026-05-07 13:50 | 35.41401 | 133.37988 | 15039 ft | 415 kts | 100° |
| 2026-05-07 13:50 | 35.41045 | 133.41480 | 15614 ft | 419 kts | 101° |
| 2026-05-07 13:50 | 35.40681 | 133.45040 | 16215 ft | 422 kts | 101° |
| 2026-05-07 13:50 | 35.40312 | 133.48625 | 16802 ft | 426 kts | 101° |
| 2026-05-07 13:51 | 35.39938 | 133.52241 | 17410 ft | 430 kts | 102° |
| 2026-05-07 13:51 | 35.39563 | 133.55868 | 17953 ft | 435 kts | 102° |
| 2026-05-07 13:51 | 35.39181 | 133.59568 | 18467 ft | 439 kts | 102° |
| 2026-05-07 13:51 | 35.38796 | 133.63296 | 18898 ft | 444 kts | 102° |
| 2026-05-07 13:52 | 35.38407 | 133.67057 | 19426 ft | 446 kts | 101° |
| 2026-05-07 13:52 | 35.38015 | 133.70844 | 19944 ft | 449 kts | 101° |
| 2026-05-07 13:52 | 35.37617 | 133.74667 | 20437 ft | 453 kts | 101° |
| 2026-05-07 13:52 | 35.37213 | 133.78522 | 20917 ft | 457 kts | 101° |
| 2026-05-07 13:53 | 35.36803 | 133.82403 | 21376 ft | 461 kts | 101° |
| 2026-05-07 13:53 | 35.36387 | 133.86317 | 21837 ft | 464 kts | 101° |
| 2026-05-07 13:53 | 35.35973 | 133.90202 | 22300 ft | 466 kts | 101° |
| 2026-05-07 13:53 | 35.35549 | 133.94169 | 22765 ft | 470 kts | 101° |
| 2026-05-07 13:54 | 35.35122 | 133.98162 | 23202 ft | 473 kts | 101° |
| 2026-05-07 13:54 | 35.34687 | 134.02133 | 23601 ft | 476 kts | 103° |
| 2026-05-07 13:54 | 35.33840 | 134.06040 | 23991 ft | 470 kts | 116° |
| 2026-05-07 13:54 | 35.32377 | 134.09591 | 24381 ft | 464 kts | 128° |
| 2026-05-07 13:55 | 35.30384 | 134.12648 | 24736 ft | 456 kts | 141° |
| 2026-05-07 13:55 | 35.27973 | 134.15111 | 25088 ft | 448 kts | 152° |
| 2026-05-07 13:55 | 35.25256 | 134.16926 | 25405 ft | 441 kts | 163° |
| 2026-05-07 13:55 | 35.22352 | 134.18051 | 25743 ft | 436 kts | 174° |
| 2026-05-07 13:56 | 35.19377 | 134.18782 | 26088 ft | 437 kts | 174° |
| 2026-05-07 13:56 | 35.16388 | 134.19513 | 26403 ft | 439 kts | 174° |
| 2026-05-07 13:56 | 35.13421 | 134.20245 | 26753 ft | 442 kts | 174° |
| 2026-05-07 13:56 | 35.10399 | 134.20994 | 27111 ft | 445 kts | 174° |
| 2026-05-07 13:57 | 35.07351 | 134.21751 | 27424 ft | 447 kts | 174° |
| 2026-05-07 13:57 | 35.04283 | 134.22513 | 27738 ft | 450 kts | 174° |
| 2026-05-07 13:57 | 35.01197 | 134.23281 | 28089 ft | 452 kts | 174° |
| 2026-05-07 13:57 | 34.98094 | 134.24047 | 28338 ft | 456 kts | 174° |
| 2026-05-07 13:58 | 34.95002 | 134.24804 | 28636 ft | 459 kts | 174° |
| 2026-05-07 13:58 | 34.91853 | 134.25575 | 28880 ft | 462 kts | 174° |
| 2026-05-07 13:58 | 34.88719 | 134.26345 | 28939 ft | 453 kts | 174° |
| 2026-05-07 13:58 | 34.85639 | 134.27108 | 28779 ft | 449 kts | 174° |
| 2026-05-07 13:59 | 34.82627 | 134.27853 | 28112 ft | 446 kts | 174° |
| 2026-05-07 13:59 | 34.79582 | 134.28601 | 27311 ft | 446 kts | 174° |
| 2026-05-07 13:59 | 34.76530 | 134.29345 | 26585 ft | 445 kts | 174° |
| 2026-05-07 13:59 | 34.73508 | 134.30085 | 26024 ft | 440 kts | 174° |
| 2026-05-07 14:00 | 34.70550 | 134.30813 | 25458 ft | 436 kts | 174° |
| 2026-05-07 14:00 | 34.67591 | 134.31541 | 24894 ft | 432 kts | 175° |
| 2026-05-07 14:00 | 34.64663 | 134.32258 | 24349 ft | 427 kts | 174° |
| 2026-05-07 14:00 | 34.61764 | 134.32967 | 23808 ft | 423 kts | 175° |
| 2026-05-07 14:01 | 34.58895 | 134.33666 | 23227 ft | 419 kts | 175° |
| 2026-05-07 14:01 | 34.56047 | 134.34359 | 22587 ft | 415 kts | 174° |
| 2026-05-07 14:01 | 34.53230 | 134.35045 | 21954 ft | 412 kts | 174° |
| 2026-05-07 14:01 | 34.50430 | 134.35726 | 21362 ft | 408 kts | 174° |
| 2026-05-07 14:02 | 34.47659 | 134.36398 | 20812 ft | 405 kts | 174° |
| 2026-05-07 14:02 | 34.44909 | 134.37061 | 20445 ft | 398 kts | 175° |
| 2026-05-07 14:02 | 34.42217 | 134.37260 | 20274 ft | 377 kts | 187° |
| 2026-05-07 14:02 | 34.39667 | 134.37134 | 20150 ft | 364 kts | 188° |
| 2026-05-07 14:03 | 34.37178 | 134.37011 | 20038 ft | 350 kts | 188° |
| 2026-05-07 14:03 | 34.34809 | 134.36893 | 19657 ft | 331 kts | 188° |
| 2026-05-07 14:03 | 34.32541 | 134.36772 | 18926 ft | 323 kts | 188° |
| 2026-05-07 14:03 | 34.30313 | 134.36645 | 18138 ft | 318 kts | 188° |
| 2026-05-07 14:04 | 34.28142 | 134.36518 | 17254 ft | 315 kts | 188° |
| 2026-05-07 14:04 | 34.25971 | 134.36392 | 16392 ft | 310 kts | 188° |
| 2026-05-07 14:04 | 34.23827 | 134.36272 | 15637 ft | 304 kts | 188° |
| 2026-05-07 14:04 | 34.21783 | 134.36163 | 15376 ft | 285 kts | 188° |
| 2026-05-07 14:05 | 34.19807 | 134.36055 | 15138 ft | 282 kts | 188° |
| 2026-05-07 14:05 | 34.17860 | 134.35944 | 14644 ft | 279 kts | 188° |
| 2026-05-07 14:05 | 34.15926 | 134.35835 | 13962 ft | 275 kts | 188° |
| 2026-05-07 14:05 | 34.14033 | 134.35729 | 13243 ft | 275 kts | 188° |
| 2026-05-07 14:06 | 34.12129 | 134.35601 | 12502 ft | 271 kts | 193° |
| 2026-05-07 14:06 | 34.10396 | 134.34886 | 11797 ft | 260 kts | 216° |
| 2026-05-07 14:06 | 34.09112 | 134.33425 | 11125 ft | 253 kts | 238° |
| 2026-05-07 14:06 | 34.08427 | 134.31459 | 10486 ft | 262 kts | 259° |
| 2026-05-07 14:07 | 34.08416 | 134.29214 | 9826 ft | 275 kts | 274° |
| 2026-05-07 14:07 | 34.08644 | 134.26880 | 9045 ft | 279 kts | 276° |
| 2026-05-07 14:07 | 34.08952 | 134.24619 | 8305 ft | 275 kts | 284° |
| 2026-05-07 14:07 | 34.09850 | 134.22592 | 7591 ft | 276 kts | 308° |
| 2026-05-07 14:08 | 34.11368 | 134.21194 | 6878 ft | 277 kts | 333° |
| 2026-05-07 14:08 | 34.13251 | 134.20701 | 6237 ft | 279 kts | 0° |
| 2026-05-07 14:08 | 34.15076 | 134.21229 | 6035 ft | 262 kts | 25° |
| 2026-05-07 14:08 | 34.16480 | 134.22493 | 5992 ft | 249 kts | 50° |
| 2026-05-07 14:09 | 34.17359 | 134.24284 | 5998 ft | 249 kts | 73° |
| 2026-05-07 14:09 | 34.17589 | 134.26310 | 5999 ft | 246 kts | 96° |
| 2026-05-07 14:09 | 34.17432 | 134.28376 | 5999 ft | 247 kts | 99° |
| 2026-05-07 14:09 | 34.17202 | 134.30424 | 5998 ft | 246 kts | 100° |
| 2026-05-07 14:10 | 34.16952 | 134.32464 | 6001 ft | 245 kts | 101° |
| 2026-05-07 14:10 | 34.16700 | 134.34508 | 6002 ft | 246 kts | 100° |
| 2026-05-07 14:10 | 34.16405 | 134.36538 | 5998 ft | 245 kts | 111° |
| 2026-05-07 14:10 | 34.15543 | 134.38262 | 6005 ft | 239 kts | 140° |
| 2026-05-07 14:11 | 34.14157 | 134.39283 | 6001 ft | 232 kts | 167° |
| 2026-05-07 14:11 | 34.12593 | 134.39444 | 5985 ft | 228 kts | 192° |
| 2026-05-07 14:11 | 34.11134 | 134.38758 | 5986 ft | 224 kts | 217° |
| 2026-05-07 14:11 | 34.10086 | 134.37390 | 5988 ft | 223 kts | 242° |
| 2026-05-07 14:12 | 34.09635 | 134.35607 | 5990 ft | 225 kts | 266° |
| 2026-05-07 14:12 | 34.09731 | 134.33723 | 5992 ft | 225 kts | 275° |
| 2026-05-07 14:12 | 34.09931 | 134.31873 | 5993 ft | 225 kts | 276° |
| 2026-05-07 14:12 | 34.10152 | 134.30002 | 5995 ft | 225 kts | 276° |
| 2026-05-07 14:13 | 34.10376 | 134.28126 | 5996 ft | 225 kts | 276° |
| 2026-05-07 14:13 | 34.10617 | 134.26254 | 5994 ft | 227 kts | 282° |
| 2026-05-07 14:13 | 34.11297 | 134.24534 | 5998 ft | 232 kts | 306° |
| 2026-05-07 14:13 | 34.12559 | 134.23317 | 5996 ft | 238 kts | 333° |
| 2026-05-07 14:14 | 34.14201 | 134.22891 | 5695 ft | 251 kts | 2° |
| 2026-05-07 14:14 | 34.15870 | 134.23391 | 5599 ft | 245 kts | 25° |
| 2026-05-07 14:14 | 34.17074 | 134.24774 | 5500 ft | 242 kts | 63° |
| 2026-05-07 14:14 | 34.17514 | 134.26719 | 5470 ft | 242 kts | 90° |
| 2026-05-07 14:15 | 34.17393 | 134.28742 | 5466 ft | 242 kts | 99° |
| 2026-05-07 14:15 | 34.17172 | 134.30741 | 5457 ft | 242 kts | 100° |
| 2026-05-07 14:15 | 34.16908 | 134.32755 | 5445 ft | 244 kts | 105° |
| 2026-05-07 14:15 | 34.16216 | 134.34554 | 5402 ft | 228 kts | 130° |
| 2026-05-07 14:16 | 34.15074 | 134.35791 | 5332 ft | 217 kts | 153° |
| 2026-05-07 14:16 | 34.13681 | 134.36395 | 5269 ft | 211 kts | 174° |
| 2026-05-07 14:16 | 34.12252 | 134.36658 | 5197 ft | 200 kts | 174° |
| 2026-05-07 14:16 | 34.10939 | 134.36906 | 5104 ft | 181 kts | 173° |
| 2026-05-07 14:17 | 34.09795 | 134.37126 | 5046 ft | 155 kts | 174° |
| 2026-05-07 14:17 | 34.08768 | 134.37321 | 4983 ft | 149 kts | 174° |
| 2026-05-07 14:17 | 34.07773 | 134.37658 | 4983 ft | 149 kts | 162° |
| 2026-05-07 14:17 | 34.06856 | 134.38250 | 4989 ft | 151 kts | 149° |
| 2026-05-07 14:18 | 34.06055 | 134.39078 | 4983 ft | 153 kts | 137° |
| 2026-05-07 14:18 | 34.05416 | 134.40118 | 5001 ft | 156 kts | 125° |
| 2026-05-07 14:18 | 34.04970 | 134.41333 | 4727 ft | 160 kts | 111° |
| 2026-05-07 14:18 | 34.04771 | 134.42650 | 4307 ft | 161 kts | 97° |
| 2026-05-07 14:19 | 34.04827 | 134.44004 | 3876 ft | 162 kts | 83° |
| 2026-05-07 14:19 | 34.05145 | 134.45306 | 3477 ft | 160 kts | 68° |
| 2026-05-07 14:19 | 34.05675 | 134.46437 | 3147 ft | 155 kts | 55° |
| 2026-05-07 14:19 | 34.06395 | 134.47399 | 2900 ft | 154 kts | 42° |
| 2026-05-07 14:20 | 34.07265 | 134.48138 | 2673 ft | 153 kts | 29° |
| 2026-05-07 14:20 | 34.08242 | 134.48649 | 2449 ft | 153 kts | 21° |
| 2026-05-07 14:20 | 34.09231 | 134.49127 | 2193 ft | 152 kts | 23° |
| 2026-05-07 14:20 | 34.10207 | 134.49622 | 2022 ft | 152 kts | 23° |
| 2026-05-07 14:21 | 34.11162 | 134.50183 | 1779 ft | 153 kts | 30° |
| 2026-05-07 14:21 | 34.12016 | 134.50900 | 1484 ft | 150 kts | 41° |
| 2026-05-07 14:21 | 34.12747 | 134.51787 | 1252 ft | 148 kts | 52° |
| 2026-05-07 14:21 | 34.13320 | 134.52811 | 1139 ft | 147 kts | 63° |
| 2026-05-07 14:22 | 34.13726 | 134.53935 | 942 ft | 145 kts | 75° |
| 2026-05-07 14:22 | 34.13950 | 134.55108 | 769 ft | 143 kts | 85° |
| 2026-05-07 14:22 | 34.13993 | 134.56293 | 575 ft | 139 kts | 96° |
| 2026-05-07 14:22 | 34.13878 | 134.57448 | 397 ft | 138 kts | 105° |
| 2026-05-07 14:23 | 34.13659 | 134.58574 | 207 ft | 138 kts | 106° |
| 2026-05-07 14:23 | 34.13459 | 134.59704 | 50 ft | 134 kts | 106° |
| 2026-05-07 14:23 | 34.13276 | 134.60661 | 22 ft | 93 kts | 103° |
| 2026-05-07 14:23 | 34.13197 | 134.61082 | 21 ft | 22 kts | 103° |
| 2026-05-07 14:24 | 34.13268 | 134.61202 | 22 ft | 20 kts | 15° |
| 2026-05-07 14:24 | 34.13328 | 134.61278 | 22 ft | 12 kts | 92° |
| 2026-05-07 14:24 | 34.13313 | 134.61381 | 22 ft | 13 kts | 103° |
| 2026-05-07 14:24 | 34.13291 | 134.61494 | 22 ft | 15 kts | 102° |
| 2026-05-07 14:25 | 34.13271 | 134.61609 | 23 ft | 11 kts | 103° |
| 2026-05-07 14:25 | 34.13275 | 134.61687 | 22 ft | 6 kts | 31° |
| 2026-05-07 14:25 | 34.13321 | 134.61691 | 22 ft | 8 kts | 11° |
| 2026-05-07 14:25 | 34.13373 | 134.61705 | 22 ft | 4 kts | 13° |
| 2026-05-07 14:26 | 34.13384 | 134.61708 | 22 ft | 2 kts | 13° |
| 2026-05-07 14:26 | 34.13386 | 134.61709 | 22 ft | 0 kts | 13° |